createdAt,value
2024-04-25T00:33:59.688Z,100649.94
2024-04-25T00:44:01.199Z,100652.44
2024-04-25T00:54:02.602Z,100639.34
2024-04-25T01:04:04.066Z,100641.97
2024-04-25T01:14:06.557Z,100638.53
2024-04-25T01:24:08.064Z,100632.47
2024-04-25T01:34:09.449Z,100619.44
2024-04-25T01:44:10.860Z,100605.47
2024-04-25T01:54:12.292Z,100591.59
2024-04-25T02:04:13.758Z,100597.69
2024-04-25T02:14:15.163Z,100586.41
2024-04-25T02:24:16.554Z,100590.75
2024-04-25T02:34:18.068Z,100589.91
2024-04-25T02:44:19.553Z,100576.09
2024-04-25T02:54:21.053Z,100569.19
2024-04-25T03:04:22.475Z,100557.00
2024-04-25T03:14:23.860Z,100555.41
2024-04-25T03:24:25.266Z,100553.41
2024-04-25T03:34:26.653Z,100561.41
2024-04-25T03:44:28.072Z,100547.50
2024-04-25T03:54:31.692Z,100533.59
2024-04-25T04:04:33.117Z,100536.94
2024-04-25T04:14:34.621Z,100527.41
2024-04-25T04:24:36.242Z,100503.06
2024-04-25T04:34:38.668Z,100516.06
2024-04-25T04:44:40.112Z,100503.97
2024-04-25T04:54:41.513Z,100518.81
2024-04-25T05:04:42.950Z,100517.03
2024-04-25T05:14:44.342Z,100511.03
2024-04-25T05:24:45.775Z,100510.91
2024-04-25T05:34:47.225Z,100516.25
2024-04-25T05:44:48.678Z,100504.84
2024-04-25T05:54:50.051Z,100511.81
2024-04-25T06:04:51.455Z,100523.13
2024-04-25T06:14:52.871Z,100508.34
2024-04-25T06:24:54.258Z,100505.59
2024-04-25T06:34:55.627Z,100503.91
2024-04-25T06:44:57.067Z,100492.66
2024-04-25T06:54:58.480Z,100491.63
2024-04-25T07:05:00.264Z,100480.31
2024-04-25T07:15:01.957Z,100481.94
2024-04-25T07:25:03.385Z,100477.59
2024-04-25T07:35:04.816Z,100475.09
2024-04-25T07:45:06.198Z,100474.97
2024-04-25T07:55:07.579Z,100480.00
2024-04-25T08:05:10.364Z,100465.34
2024-04-25T08:15:11.841Z,100474.84
2024-04-25T08:25:20.435Z,100459.97
2024-04-25T08:45:50.476Z,100449.09
2024-04-25T08:55:51.988Z,100447.28
2024-04-25T09:06:01.934Z,100442.75
2024-04-25T09:16:06.461Z,100428.84
2024-04-25T09:26:12.702Z,100418.38
2024-04-25T09:36:23.410Z,100406.00
2024-04-25T09:46:32.392Z,100406.22
2024-04-25T09:56:40.511Z,100397.09
2024-04-25T10:06:48.398Z,100394.50
2024-04-25T10:16:57.647Z,100382.38
2024-04-25T10:27:04.493Z,100358.97
2024-04-25T10:37:12.455Z,100364.06
2024-04-25T10:47:21.511Z,100373.84
2024-04-25T10:57:29.509Z,100366.13
2024-04-25T11:07:37.451Z,100352.25
2024-04-25T11:17:56.401Z,100344.41
2024-04-25T11:28:05.290Z,100325.88
2024-04-25T11:38:06.692Z,100333.81
2024-04-25T11:48:10.501Z,100326.03
2024-04-25T12:08:47.067Z,100299.94
2024-04-25T12:18:56.912Z,100285.94
2024-04-25T12:28:58.374Z,100282.44
2024-04-25T12:38:59.744Z,100262.28
2024-04-25T12:49:01.344Z,100233.41
2024-04-25T12:59:14.420Z,100216.66
2024-04-25T13:09:16.688Z,100217.34
2024-04-25T13:19:25.638Z,100219.13
2024-04-25T13:29:33.497Z,100203.22
2024-04-25T13:39:41.467Z,100191.13
2024-04-25T13:49:49.434Z,100179.88
2024-04-25T14:00:00.501Z,100164.19
2024-04-25T14:10:06.666Z,100148.34
2024-04-25T14:30:38.570Z,100139.88
2024-04-25T14:51:08.967Z,100124.41
2024-04-25T15:01:10.534Z,100120.19
2024-04-25T15:11:12.235Z,100122.78
2024-04-25T15:31:42.812Z,100110.78
2024-04-25T15:41:44.388Z,100096.16
2024-04-25T15:51:45.877Z,100090.00
2024-04-25T16:01:50.862Z,100083.00
2024-04-25T16:11:52.416Z,100091.78
2024-04-25T16:21:53.890Z,100089.94
2024-04-25T16:32:00.827Z,100085.53
2024-04-25T16:42:10.525Z,100075.63
2024-04-25T16:52:18.516Z,100062.16
2024-04-25T17:02:27.566Z,100051.94
2024-04-25T17:12:35.784Z,100044.16
2024-04-25T17:22:41.802Z,100034.00
2024-04-25T17:32:43.454Z,100028.78
2024-04-25T17:53:16.411Z,100013.25
2024-04-25T18:03:17.888Z,100009.75
2024-04-25T18:13:25.530Z,99988.75
2024-04-25T18:23:32.512Z,99986.94
2024-04-25T18:33:34.121Z,99997.56
2024-04-25T18:43:35.670Z,100007.38
2024-04-25T18:53:37.084Z,100001.09
2024-04-25T19:03:38.583Z,100006.31
2024-04-25T19:13:39.999Z,100005.63
2024-04-25T19:23:41.434Z,100009.09
2024-04-25T19:33:43.156Z,100003.91
2024-04-25T19:43:44.677Z,100009.09
2024-04-25T19:53:46.152Z,100006.31
2024-04-25T20:03:48.942Z,100007.38
2024-04-25T20:13:54.474Z,100010.72
2024-04-25T20:23:56.083Z,100003.03
2024-04-25T20:33:57.749Z,100000.44
2024-04-25T20:43:59.171Z,99997.84
2024-04-25T20:54:00.682Z,99995.28
2024-04-25T21:04:02.172Z,99993.50
2024-04-25T21:14:03.658Z,99981.34
2024-04-25T21:24:05.026Z,99987.53
2024-04-25T21:34:06.583Z,99998.81
2024-04-25T21:44:08.112Z,99982.22
2024-04-25T21:54:09.523Z,99988.44
2024-04-25T22:04:10.914Z,99991.88
2024-04-25T22:14:12.415Z,99993.69
2024-04-25T22:24:13.910Z,100002.34
2024-04-25T22:34:17.980Z,99991.97
2024-04-25T22:44:19.764Z,99988.28
2024-04-25T22:54:21.271Z,99984.22
2024-04-25T23:04:22.784Z,99972.91
2024-04-25T23:14:30.088Z,99964.13
2024-04-25T23:24:33.580Z,99953.81
2024-04-25T23:34:39.692Z,99943.38
2024-04-25T23:44:41.330Z,99936.41
2024-04-25T23:54:42.826Z,99935.53
